Time;durP1;ratioP1;P1;durP2;ratioP2;P2;SDS_P1;SDS_P2;PMS_P1;PMS_P2;Temp;Humidity;BMP_temperature;BMP_pressure;BME280_temperature;BME280_humidity;BME280_pressure;Samples;Min_cycle;Max_cycle;Signal;HPM_P1;HPM_P2
2021/08/24 00:00:07;;;;;;;2.25;1.95;;;22.30;59.50;;;;;;3121337;28;20246;-85
2021/08/24 00:01:39;;;;;;;4.07;2.13;;;22.30;59.60;;;;;;3109967;28;20049;-86
2021/08/24 00:03:11;;;;;;;2.25;2.05;;;22.30;59.50;;;;;;3110668;28;20092;-85
2021/08/24 00:04:42;;;;;;;3.30;2.40;;;22.30;59.60;;;;;;3117853;28;20582;-85
2021/08/24 00:06:14;;;;;;;3.10;2.20;;;22.30;59.60;;;;;;3117351;28;20045;-85
2021/08/24 00:07:45;;;;;;;2.58;2.17;;;22.20;59.50;;;;;;3122464;28;20104;-85
2021/08/24 00:09:19;;;;;;;2.58;1.98;;;22.30;59.60;;;;;;3116184;28;20054;-84
2021/08/24 00:10:53;;;;;;;3.90;2.33;;;22.20;59.50;;;;;;3110039;28;20082;-84
2021/08/24 00:12:24;;;;;;;2.97;2.08;;;22.20;59.50;;;;;;3122141;28;20049;-85
2021/08/24 00:13:56;;;;;;;2.33;2.10;;;22.20;59.50;;;;;;3115837;28;20060;-85
2021/08/24 00:15:28;;;;;;;2.20;2.00;;;22.20;59.50;;;;;;3119486;28;20103;-84
2021/08/24 00:17:00;;;;;;;2.75;2.10;;;22.20;59.50;;;;;;3120864;28;20476;-85
2021/08/24 00:18:32;;;;;;;2.08;1.80;;;22.20;59.50;;;;;;3122077;28;20045;-85
2021/08/24 00:20:05;;;;;;;2.90;2.33;;;22.20;59.50;;;;;;3119288;28;20053;-85
2021/08/24 00:21:37;;;;;;;2.63;2.05;;;22.20;59.60;;;;;;3113257;28;20476;-85
2021/08/24 00:23:11;;;;;;;2.63;1.95;;;22.20;59.50;;;;;;3110437;28;20065;-85
2021/08/24 00:24:44;;;;;;;2.78;2.10;;;22.20;59.50;;;;;;3120876;28;20422;-84
2021/08/24 00:26:16;;;;;;;2.70;2.13;;;22.20;59.60;;;;;;3109265;28;20050;-87
2021/08/24 00:27:47;;;;;;;3.28;2.10;;;22.20;59.60;;;;;;3110074;28;20061;-85
2021/08/24 00:29:19;;;;;;;3.53;1.80;;;22.20;59.60;;;;;;3120144;28;20046;-85
2021/08/24 00:30:51;;;;;;;3.85;2.05;;;22.20;59.60;;;;;;3120805;28;20064;-85
2021/08/24 00:32:22;;;;;;;2.70;2.00;;;22.20;59.50;;;;;;3121468;28;20515;-85
2021/08/24 00:33:54;;;;;;;2.40;1.95;;;22.20;59.60;;;;;;3109566;28;20045;-86
2021/08/24 00:35:25;;;;;;;2.28;1.90;;;22.20;59.50;;;;;;3109432;28;20053;-85
2021/08/24 00:36:57;;;;;;;3.10;2.00;;;22.20;59.60;;;;;;3110284;28;20049;-85
2021/08/24 00:38:28;;;;;;;2.50;1.80;;;22.10;59.50;;;;;;3110269;28;20050;-86
2021/08/24 00:40:01;;;;;;;2.60;2.10;;;22.20;59.60;;;;;;3113671;28;20046;-84
2021/08/24 00:41:33;;;;;;;3.00;2.05;;;22.10;59.50;;;;;;3109169;28;20133;-86
2021/08/24 00:43:05;;;;;;;2.35;2.05;;;22.10;59.50;;;;;;3111734;28;20053;-84
2021/08/24 00:44:37;;;;;;;3.25;2.08;;;22.10;59.50;;;;;;3115635;28;20077;-85
2021/08/24 00:46:14;;;;;;;2.30;2.10;;;22.10;59.50;;;;;;3114998;28;20258;-86
2021/08/24 00:47:48;;;;;;;2.45;1.90;;;22.10;59.50;;;;;;3118210;28;20049;-86
2021/08/24 00:49:21;;;;;;;2.75;1.80;;;22.10;59.50;;;;;;3121889;28;20049;-85
2021/08/24 00:50:52;;;;;;;2.50;2.03;;;22.10;59.50;;;;;;3112836;28;20169;-85
2021/08/24 00:52:25;;;;;;;3.95;2.20;;;22.10;59.50;;;;;;3109698;28;20100;-84
2021/08/24 00:53:56;;;;;;;2.33;2.00;;;22.10;59.50;;;;;;3110080;28;20116;-85
2021/08/24 00:55:30;;;;;;;2.20;1.90;;;22.10;59.50;;;;;;3109438;28;20049;-86
2021/08/24 00:57:05;;;;;;;2.33;1.92;;;22.10;59.50;;;;;;3109779;28;20050;-84
2021/08/24 00:58:37;;;;;;;3.03;2.13;;;22.10;59.50;;;;;;3109663;28;20050;-84
2021/08/24 01:00:10;;;;;;;2.88;2.20;;;22.10;59.50;;;;;;3108480;28;20049;-84
2021/08/24 01:01:41;;;;;;;;;;;22.10;59.50;;;;;;3110602;28;20104;-84
2021/08/24 01:03:16;;;;;;;3.75;1.63;;;22.10;59.50;;;;;;3111393;28;19929;-84
2021/08/24 01:04:49;;;;;;;3.33;1.90;;;22.10;59.50;;;;;;3117544;28;20408;-84
2021/08/24 01:06:28;;;;;;;3.17;2.13;;;22.10;59.50;;;;;;3117854;28;20058;-84
2021/08/24 01:08:04;;;;;;;2.50;1.90;;;22.00;59.50;;;;;;3109610;28;20049;-84
2021/08/24 01:09:42;;;;;;;3.15;1.88;;;22.00;59.50;;;;;;3111487;28;20208;-84
2021/08/24 01:11:17;;;;;;;2.75;2.10;;;22.00;59.40;;;;;;3121329;28;20060;-84
2021/08/24 01:12:52;;;;;;;2.03;1.83;;;22.00;59.50;;;;;;3122043;28;20136;-86
2021/08/24 01:14:28;;;;;;;2.90;2.00;;;22.00;59.50;;;;;;3110088;28;20050;-85
2021/08/24 01:16:02;;;;;;;2.88;1.95;;;22.00;59.50;;;;;;3111356;28;20306;-84
2021/08/24 01:17:36;;;;;;;2.70;2.00;;;22.00;59.50;;;;;;3117109;28;20062;-85
2021/08/24 01:19:48;;;;;;;2.75;1.85;;;22.00;59.50;;;;;;3118720;28;20053;-84
2021/08/24 01:21:42;;;;;;;3.20;2.28;;;22.00;59.50;;;;;;3078363;28;20065;-84
2021/08/24 01:23:28;;;;;;;;;;;22.00;59.50;;;;;;3073778;28;20078;-84
2021/08/24 01:25:01;;;;;;;2.08;1.77;;;22.00;59.50;;;;;;3073847;28;19923;-84
2021/08/24 01:26:36;;;;;;;2.47;1.80;;;22.00;59.40;;;;;;3094889;28;20057;-84
2021/08/24 01:28:10;;;;;;;2.42;2.00;;;22.00;59.50;;;;;;3121425;28;20053;-84
2021/08/24 01:30:04;;;;;;;2.22;1.70;;;22.00;59.50;;;;;;3115817;28;20077;-85
2021/08/24 01:32:09;;;;;;;3.30;1.70;;;21.90;59.50;;;;;;3108952;28;20054;-84
2021/08/24 01:33:44;;;;;;;1.95;1.75;;;22.00;59.60;;;;;;3116175;28;20053;-84
2021/08/24 01:35:23;;;;;;;3.45;1.90;;;21.90;59.40;;;;;;3120420;28;20096;-87
2021/08/24 01:36:58;;;;;;;2.42;2.00;;;21.90;59.50;;;;;;3122215;28;20515;-84
2021/08/24 01:38:31;;;;;;;1.92;1.80;;;21.90;59.40;;;;;;3116458;28;20243;-86
2021/08/24 01:40:05;;;;;;;2.28;1.80;;;21.90;59.50;;;;;;3117285;28;20058;-84
2021/08/24 01:41:51;;;;;;;2.00;1.80;;;21.90;59.50;;;;;;3121352;28;20080;-85
2021/08/24 01:43:26;;;;;;;2.20;2.00;;;21.90;59.50;;;;;;3117323;28;20050;-84
2021/08/24 01:45:00;;;;;;;2.38;1.88;;;21.90;59.50;;;;;;3114825;28;20053;-84
2021/08/24 01:46:41;;;;;;;2.00;1.80;;;21.90;59.50;;;;;;3120471;28;20048;-85
2021/08/24 01:48:15;;;;;;;2.97;1.70;;;21.90;59.50;;;;;;3119872;28;20420;-84
2021/08/24 01:49:48;;;;;;;2.03;1.60;;;21.90;59.50;;;;;;3121454;28;20137;-85
2021/08/24 01:51:21;;;;;;;2.80;1.92;;;21.90;59.50;;;;;;3113520;28;20045;-84
2021/08/24 01:52:57;;;;;;;4.53;1.75;;;21.90;59.50;;;;;;3118596;28;20053;-84
2021/08/24 01:54:35;;;;;;;2.85;1.80;;;21.90;59.50;;;;;;3120158;28;20505;-84
2021/08/24 01:56:09;;;;;;;2.17;1.98;;;21.90;59.50;;;;;;3119215;28;20061;-84
2021/08/24 01:57:43;;;;;;;2.50;1.75;;;21.80;59.40;;;;;;3110089;28;20053;-85
2021/08/24 01:59:17;;;;;;;3.08;2.00;;;21.90;59.50;;;;;;3119020;28;20057;-84
2021/08/24 02:00:51;;;;;;;2.90;1.80;;;21.90;59.50;;;;;;3119557;28;20049;-84
2021/08/24 02:02:25;;;;;;;2.58;1.75;;;21.80;59.50;;;;;;3121699;28;20053;-84
2021/08/24 02:03:57;;;;;;;2.10;1.85;;;21.80;59.50;;;;;;3114901;28;20104;-85
2021/08/24 02:05:30;;;;;;;2.97;2.00;;;21.80;59.50;;;;;;3110806;28;20042;-87
2021/08/24 02:07:03;;;;;;;2.13;1.65;;;21.80;59.40;;;;;;3119390;28;20049;-84
2021/08/24 02:08:36;;;;;;;2.03;1.73;;;21.80;59.50;;;;;;3116764;28;20054;-85
2021/08/24 02:10:10;;;;;;;2.22;1.75;;;21.80;59.50;;;;;;3109140;28;20057;-84
2021/08/24 02:11:42;;;;;;;2.22;1.98;;;21.80;59.50;;;;;;3109272;28;20060;-84
2021/08/24 02:13:15;;;;;;;2.33;1.80;;;21.80;59.50;;;;;;3111265;28;20049;-84
2021/08/24 02:14:47;;;;;;;2.42;1.88;;;21.80;59.50;;;;;;3117078;28;20152;-84
2021/08/24 02:16:20;;;;;;;2.13;1.85;;;21.80;59.50;;;;;;3108332;28;20049;-85
2021/08/24 02:17:52;;;;;;;3.03;1.83;;;21.80;59.50;;;;;;3118711;28;20049;-86
2021/08/24 02:19:30;;;;;;;2.50;1.90;;;21.80;59.40;;;;;;3119266;28;20041;-84
2021/08/24 02:21:04;;;;;;;2.17;1.70;;;21.80;59.50;;;;;;3113737;28;20511;-84
2021/08/24 02:22:38;;;;;;;1.95;1.67;;;21.80;59.40;;;;;;3124161;28;20053;-86
2021/08/24 02:24:13;;;;;;;2.25;1.90;;;21.70;59.40;;;;;;3120327;28;20045;-84
2021/08/24 02:25:47;;;;;;;2.22;2.03;;;21.80;60.10;;;;;;3123257;28;20065;-85
2021/08/24 02:27:22;;;;;;;3.80;2.10;;;21.70;59.40;;;;;;3111649;28;20431;-84
2021/08/24 02:28:54;;;;;;;3.05;1.77;;;21.70;59.40;;;;;;3111970;28;20136;-86
2021/08/24 02:30:26;;;;;;;2.30;2.10;;;21.80;59.50;;;;;;3110489;28;20050;-85
2021/08/24 02:32:00;;;;;;;3.33;1.65;;;21.70;59.40;;;;;;3111668;28;20522;-84
2021/08/24 02:33:36;;;;;;;2.08;1.58;;;21.70;59.40;;;;;;3112252;28;20050;-84
2021/08/24 02:35:10;;;;;;;3.20;1.83;;;21.70;59.50;;;;;;3117556;28;20451;-84
2021/08/24 02:36:46;;;;;;;2.20;1.90;;;21.70;59.40;;;;;;3123796;28;20053;-84
2021/08/24 02:38:19;;;;;;;2.20;1.80;;;21.70;59.40;;;;;;3123536;28;20041;-84
2021/08/24 02:39:55;;;;;;;2.08;1.70;;;21.70;59.40;;;;;;3116567;28;20330;-84
2021/08/24 02:41:30;;;;;;;1.67;1.58;;;21.70;59.40;;;;;;3112564;28;20049;-84
2021/08/24 02:43:07;;;;;;;1.98;1.60;;;21.70;59.40;;;;;;3111693;28;20109;-84
2021/08/24 02:44:43;;;;;;;3.42;1.88;;;21.70;59.40;;;;;;3113629;28;20046;-86
2021/08/24 02:46:18;;;;;;;2.13;1.73;;;21.60;59.40;;;;;;3116136;28;20575;-86
2021/08/24 02:47:50;;;;;;;2.42;1.65;;;21.60;59.40;;;;;;3115550;28;20524;-84
2021/08/24 02:49:23;;;;;;;2.63;1.70;;;21.60;59.40;;;;;;3115686;28;20088;-85
2021/08/24 02:50:55;;;;;;;1.73;1.52;;;21.60;59.40;;;;;;3121322;28;20053;-84
2021/08/24 02:52:26;;;;;;;1.88;1.67;;;21.60;59.40;;;;;;3111193;28;20374;-84
2021/08/24 02:54:01;;;;;;;2.08;1.83;;;21.60;59.40;;;;;;3117416;28;20053;-85
2021/08/24 02:55:34;;;;;;;2.47;1.70;;;21.60;59.70;;;;;;3119853;28;20057;-84
2021/08/24 02:57:06;;;;;;;2.97;1.80;;;21.60;59.40;;;;;;3123020;28;20512;-84
2021/08/24 02:58:38;;;;;;;3.80;1.90;;;21.60;59.40;;;;;;3117397;28;20054;-84
2021/08/24 03:00:10;;;;;;;2.10;1.60;;;21.60;59.40;;;;;;3108980;28;20053;-85
2021/08/24 03:01:41;;;;;;;1.92;1.70;;;21.60;59.40;;;;;;3118026;28;20629;-85
2021/08/24 03:03:12;;;;;;;2.00;1.80;;;21.60;59.40;;;;;;3122768;28;20049;-85
2021/08/24 03:04:44;;;;;;;2.65;1.90;;;21.60;59.40;;;;;;3121433;28;20120;-85
2021/08/24 03:06:16;;;;;;;1.63;1.52;;;21.60;59.40;;;;;;3118253;28;20126;-85
2021/08/24 03:07:48;;;;;;;2.42;1.70;;;21.60;59.40;;;;;;3113038;28;20053;-85
2021/08/24 03:09:20;;;;;;;2.35;1.60;;;21.60;59.40;;;;;;3122750;28;20540;-85
2021/08/24 03:10:53;;;;;;;2.28;1.58;;;21.60;59.40;;;;;;3122160;28;20045;-85
2021/08/24 03:12:29;;;;;;;2.63;1.77;;;21.50;59.30;;;;;;3116125;28;20100;-85
2021/08/24 03:14:03;;;;;;;2.05;1.73;;;21.50;59.40;;;;;;3109849;28;20423;-85
2021/08/24 03:15:37;;;;;;;1.73;1.60;;;21.50;59.50;;;;;;3109188;28;20053;-86
2021/08/24 03:17:11;;;;;;;2.15;1.60;;;21.50;59.40;;;;;;3109906;28;20058;-85
2021/08/24 03:18:45;;;;;;;1.98;1.73;;;21.50;59.40;;;;;;3113361;28;20468;-85
2021/08/24 03:20:17;;;;;;;1.60;1.48;;;21.50;59.40;;;;;;3121222;28;20080;-85
2021/08/24 03:21:49;;;;;;;1.75;1.60;;;21.50;59.40;;;;;;3122292;28;20057;-84
2021/08/24 03:23:21;;;;;;;3.50;1.60;;;21.50;59.40;;;;;;3112927;28;20045;-85
2021/08/24 03:24:52;;;;;;;2.70;1.85;;;21.50;59.40;;;;;;3113642;28;20097;-85
2021/08/24 03:26:27;;;;;;;1.65;1.55;;;21.50;59.40;;;;;;3109650;28;20057;-85
2021/08/24 03:27:59;;;;;;;1.98;1.65;;;21.50;59.40;;;;;;3113497;28;20041;-85
2021/08/24 03:29:30;;;;;;;4.88;1.70;;;21.50;59.40;;;;;;3109767;28;20046;-85
2021/08/24 03:31:02;;;;;;;1.70;1.60;;;21.40;59.40;;;;;;3109183;28;20421;-85
2021/08/24 03:32:33;;;;;;;2.10;1.70;;;21.50;59.40;;;;;;3109923;28;20061;-85
2021/08/24 03:34:04;;;;;;;2.08;1.77;;;21.50;59.50;;;;;;3109982;28;20428;-86
2021/08/24 03:35:36;;;;;;;1.75;1.60;;;21.50;59.40;;;;;;3109673;28;20058;-85
2021/08/24 03:37:08;;;;;;;2.35;1.67;;;21.50;59.40;;;;;;3110526;28;20057;-85
2021/08/24 03:38:40;;;;;;;2.72;1.83;;;21.40;59.30;;;;;;3115006;28;20053;-84
2021/08/24 03:40:13;;;;;;;2.92;1.70;;;21.40;59.30;;;;;;3111187;28;20050;-85
2021/08/24 03:41:46;;;;;;;1.90;1.42;;;21.40;59.30;;;;;;3110368;28;20061;-86
2021/08/24 03:43:18;;;;;;;2.13;1.40;;;21.40;59.30;;;;;;3118699;28;20456;-86
2021/08/24 03:44:49;;;;;;;1.80;1.70;;;21.40;59.30;;;;;;3116425;28;20056;-86
2021/08/24 03:46:21;;;;;;;1.80;1.48;;;21.40;59.30;;;;;;3108849;28;20457;-85
2021/08/24 03:47:53;;;;;;;2.45;1.67;;;21.40;59.30;;;;;;3110177;28;20476;-85
2021/08/24 03:49:24;;;;;;;1.83;1.63;;;21.40;59.30;;;;;;3118752;28;20046;-85
2021/08/24 03:50:55;;;;;;;2.53;1.50;;;21.40;59.30;;;;;;3112206;28;20057;-85
2021/08/24 03:52:27;;;;;;;2.05;1.60;;;21.40;59.30;;;;;;3109567;28;20050;-85
2021/08/24 03:53:59;;;;;;;2.78;1.70;;;21.40;59.30;;;;;;3111836;28;20061;-85
2021/08/24 03:55:30;;;;;;;2.58;1.70;;;21.40;59.20;;;;;;3115559;28;20037;-85
2021/08/24 03:57:04;;;;;;;1.92;1.67;;;21.40;59.20;;;;;;3111427;28;20056;-86
2021/08/24 03:58:36;;;;;;;1.75;1.55;;;21.40;59.20;;;;;;3116867;28;20097;-85
2021/08/24 04:00:07;;;;;;;1.90;1.70;;;21.40;59.20;;;;;;3108382;28;20057;-85
2021/08/24 04:01:39;;;;;;;2.47;1.80;;;21.40;59.20;;;;;;3109553;28;20108;-85
2021/08/24 04:03:11;;;;;;;2.08;1.60;;;21.40;58.90;;;;;;3112051;28;20061;-86
2021/08/24 04:04:42;;;;;;;2.28;1.60;;;21.60;58.70;;;;;;3114102;28;20046;-85
2021/08/24 04:06:14;;;;;;;1.63;1.52;;;21.60;58.70;;;;;;3108448;28;20050;-85
2021/08/24 04:07:47;;;;;;;1.55;1.38;;;21.70;58.40;;;;;;3109942;28;20481;-85
2021/08/24 04:09:18;;;;;;;2.95;1.60;;;21.80;58.10;;;;;;3109386;28;20077;-86
2021/08/24 04:10:51;;;;;;;1.77;1.60;;;21.90;57.70;;;;;;3109147;28;20092;-85
2021/08/24 04:12:24;;;;;;;2.80;1.40;;;22.00;57.30;;;;;;3109510;28;20050;-84
2021/08/24 04:13:56;;;;;;;1.70;1.55;;;22.10;56.90;;;;;;3109737;28;20061;-84
2021/08/24 04:15:28;;;;;;;1.52;1.30;;;22.20;56.80;;;;;;3108260;28;20046;-84
2021/08/24 04:17:00;;;;;;;1.60;1.50;;;22.30;56.70;;;;;;3109941;28;20050;-85
2021/08/24 04:18:31;;;;;;;1.40;1.20;;;22.30;56.30;;;;;;3110722;28;20054;-86
2021/08/24 04:20:08;;;;;;;2.58;1.25;;;22.50;56.10;;;;;;3120979;28;20049;-85
2021/08/24 04:21:39;;;;;;;1.92;1.60;;;22.50;55.90;;;;;;3115063;28;20137;-85
2021/08/24 04:23:12;;;;;;;2.50;1.30;;;22.60;55.60;;;;;;3113146;28;20448;-85
2021/08/24 04:24:44;;;;;;;1.70;1.50;;;22.70;55.50;;;;;;3109730;28;20420;-85
2021/08/24 04:26:16;;;;;;;1.40;1.30;;;22.70;55.30;;;;;;3109079;28;20081;-86
2021/08/24 04:27:49;;;;;;;2.03;1.30;;;22.80;55.10;;;;;;3109301;28;20045;-84
2021/08/24 04:29:21;;;;;;;1.30;1.20;;;22.90;55.00;;;;;;3118081;28;20050;-85
2021/08/24 04:30:53;;;;;;;1.60;1.30;;;23.00;54.80;;;;;;3120508;28;20046;-85
2021/08/24 04:32:28;;;;;;;1.58;1.20;;;23.00;54.80;;;;;;3109720;28;20563;-83
2021/08/24 04:34:00;;;;;;;2.45;1.45;;;23.00;54.70;;;;;;3109686;28;20053;-85
2021/08/24 04:35:31;;;;;;;1.63;1.15;;;23.10;54.50;;;;;;3114575;28;20046;-85
2021/08/24 04:37:04;;;;;;;1.55;1.30;;;23.10;54.50;;;;;;3111187;28;20105;-85
2021/08/24 04:38:35;;;;;;;1.42;1.25;;;23.20;54.30;;;;;;3113931;28;20450;-85
2021/08/24 04:40:08;;;;;;;1.50;1.40;;;23.30;54.00;;;;;;3109570;28;20057;-84
2021/08/24 04:41:40;;;;;;;1.85;1.30;;;23.30;54.10;;;;;;3109529;28;20119;-85
2021/08/24 04:43:12;;;;;;;1.38;1.27;;;23.30;54.00;;;;;;3108627;28;20045;-85
2021/08/24 04:44:44;;;;;;;1.83;1.33;;;23.30;54.00;;;;;;3109239;28;20338;-85
2021/08/24 04:46:16;;;;;;;1.30;1.20;;;23.40;53.90;;;;;;3107886;28;20046;-85
2021/08/24 04:47:47;;;;;;;1.35;1.25;;;23.40;53.70;;;;;;3109514;28;20065;-84
2021/08/24 04:49:20;;;;;;;1.60;1.23;;;23.50;53.60;;;;;;3119508;28;20045;-85
2021/08/24 04:50:52;;;;;;;1.73;1.20;;;23.50;53.50;;;;;;3120415;28;20059;-85
2021/08/24 04:52:24;;;;;;;1.33;1.20;;;23.50;53.50;;;;;;3113999;28;20046;-85
2021/08/24 04:53:56;;;;;;;1.40;1.30;;;23.50;53.40;;;;;;3109213;28;20054;-84
2021/08/24 04:55:27;;;;;;;1.33;1.23;;;23.50;53.40;;;;;;3109187;28;20104;-85
2021/08/24 04:56:59;;;;;;;2.20;1.50;;;23.50;53.40;;;;;;3110713;28;20058;-86
2021/08/24 04:58:32;;;;;;;1.50;1.40;;;23.50;53.40;;;;;;3116350;28;20046;-85
2021/08/24 05:00:05;;;;;;;1.27;1.17;;;23.40;53.50;;;;;;3112651;28;20050;-85
2021/08/24 05:01:37;;;;;;;;;;;23.40;53.70;;;;;;3108825;28;20420;-85
2021/08/24 05:03:07;;;;;;;1.52;1.30;;;23.30;53.70;;;;;;3109403;28;19921;-84
2021/08/24 05:04:39;;;;;;;1.45;1.20;;;23.30;53.80;;;;;;3109147;28;20475;-85
2021/08/24 05:06:11;;;;;;;2.10;1.30;;;23.20;53.90;;;;;;3108463;28;20057;-85
2021/08/24 05:07:42;;;;;;;1.67;1.10;;;23.20;54.00;;;;;;3111338;28;20504;-84
2021/08/24 05:09:14;;;;;;;2.08;1.25;;;23.20;54.10;;;;;;3116954;28;20042;-85
2021/08/24 05:10:46;;;;;;;1.67;1.23;;;23.10;54.20;;;;;;3108772;28;20401;-85
2021/08/24 05:12:18;;;;;;;1.38;1.10;;;23.10;54.30;;;;;;3109281;28;20050;-85
2021/08/24 05:13:51;;;;;;;1.55;1.40;;;23.00;54.50;;;;;;3118252;28;20616;-85
2021/08/24 05:15:23;;;;;;;1.60;1.27;;;23.00;54.70;;;;;;3108439;28;20054;-85
2021/08/24 05:16:55;;;;;;;1.67;1.40;;;22.90;54.80;;;;;;3108955;28;20045;-84
2021/08/24 05:18:27;;;;;;;1.50;1.40;;;23.00;55.00;;;;;;3110212;28;20294;-85
2021/08/24 05:19:58;;;;;;;1.63;1.30;;;22.90;55.00;;;;;;3115175;28;20042;-85
2021/08/24 05:21:30;;;;;;;1.70;1.27;;;22.80;54.90;;;;;;3114970;28;20124;-85
2021/08/24 05:23:02;;;;;;;1.73;1.35;;;22.80;55.10;;;;;;3109386;28;20378;-85
2021/08/24 05:24:34;;;;;;;2.25;1.35;;;22.80;55.20;;;;;;3109239;28;20054;-85
2021/08/24 05:26:07;;;;;;;1.48;1.35;;;22.80;55.20;;;;;;3109691;28;20046;-85
2021/08/24 05:27:39;;;;;;;1.67;1.58;;;22.80;55.30;;;;;;3110091;28;20053;-86
2021/08/24 05:29:16;;;;;;;2.17;1.40;;;22.80;55.00;;;;;;3109055;28;20105;-85
2021/08/24 05:30:47;;;;;;;1.58;1.40;;;22.80;55.10;;;;;;3107696;28;20688;-85
2021/08/24 05:32:19;;;;;;;1.42;1.23;;;22.80;55.20;;;;;;3109310;28;20050;-85
2021/08/24 05:33:51;;;;;;;1.85;1.30;;;22.80;55.20;;;;;;3109423;28;20057;-86
2021/08/24 05:35:23;;;;;;;2.45;1.25;;;22.80;55.10;;;;;;3111461;28;20049;-85
2021/08/24 05:36:54;;;;;;;1.58;1.30;;;22.80;55.30;;;;;;3112667;28;20057;-85
2021/08/24 05:38:27;;;;;;;1.52;1.30;;;22.80;55.30;;;;;;3119555;28;20053;-84
2021/08/24 05:39:58;;;;;;;1.63;1.40;;;22.80;55.30;;;;;;3110990;28;20512;-85
2021/08/24 05:41:30;;;;;;;2.50;1.50;;;22.80;55.30;;;;;;3111527;28;20041;-84
2021/08/24 05:43:02;;;;;;;1.70;1.52;;;22.80;55.30;;;;;;3119601;28;20053;-85
2021/08/24 05:44:36;;;;;;;2.28;1.15;;;22.80;55.30;;;;;;3119339;28;20459;-85
2021/08/24 05:46:10;;;;;;;2.70;1.50;;;22.70;55.40;;;;;;3109608;28;20049;-85
2021/08/24 05:47:42;;;;;;;1.40;1.30;;;22.80;55.40;;;;;;3109721;28;20053;-85
2021/08/24 05:49:14;;;;;;;3.83;1.40;;;22.70;55.50;;;;;;3115767;28;20052;-86
2021/08/24 05:50:45;;;;;;;1.90;1.60;;;22.70;55.60;;;;;;3120653;28;20045;-85
2021/08/24 05:52:17;;;;;;;2.05;1.40;;;22.80;55.60;;;;;;3112139;28;20503;-85
2021/08/24 05:53:49;;;;;;;1.38;1.25;;;22.80;55.50;;;;;;3114002;28;20062;-85
2021/08/24 05:55:22;;;;;;;2.30;1.40;;;22.80;55.40;;;;;;3123319;28;20057;-87
2021/08/24 05:56:54;;;;;;;1.73;1.40;;;22.80;55.30;;;;;;3113666;28;20050;-87
2021/08/24 05:58:26;;;;;;;1.67;1.40;;;22.80;55.30;;;;;;3118064;28;20097;-86
2021/08/24 06:00:00;;;;;;;1.65;1.30;;;22.90;55.10;;;;;;3118207;28;20129;-88
2021/08/24 06:01:35;;;;;;;1.50;1.30;;;23.00;55.10;;;;;;3122330;28;20056;-86
2021/08/24 06:03:07;;;;;;;1.65;1.23;;;23.00;55.00;;;;;;3114656;28;20511;-88
2021/08/24 06:04:37;;;;;;;1.60;1.08;;;23.10;55.10;;;;;;3115778;28;20057;-88
2021/08/24 06:06:17;;;;;;;6.07;1.50;;;23.10;55.00;;;;;;3110955;28;20049;-87
2021/08/24 06:07:49;;;;;;;3.72;1.30;;;23.10;55.10;;;;;;3122463;28;20045;-89
2021/08/24 06:09:21;;;;;;;2.27;1.50;;;23.00;55.30;;;;;;3120275;28;20549;-88
2021/08/24 06:10:53;;;;;;;2.25;1.40;;;23.10;55.30;;;;;;3123044;28;20300;-87
2021/08/24 06:12:25;;;;;;;4.30;1.50;;;23.10;55.50;;;;;;3119676;28;20508;-87
2021/08/24 06:13:57;;;;;;;3.00;1.30;;;23.00;55.70;;;;;;3112884;28;20084;-87
2021/08/24 06:15:30;;;;;;;8.10;1.63;;;23.00;55.90;;;;;;3116533;28;20049;-87
2021/08/24 06:17:02;;;;;;;3.53;1.50;;;23.00;56.00;;;;;;3123809;28;20049;-87
2021/08/24 06:18:35;;;;;;;12.50;1.50;;;23.00;56.00;;;;;;3115509;28;20068;-87
2021/08/24 06:20:08;;;;;;;4.57;1.40;;;23.00;56.60;;;;;;3116284;28;20054;-87
2021/08/24 06:21:40;;;;;;;;;;;23.00;56.60;;;;;;3116460;28;20056;-85
2021/08/24 06:23:12;;;;;;;11.60;1.52;;;23.00;56.80;;;;;;3115435;28;19921;-88
2021/08/24 06:24:43;;;;;;;4.57;1.70;;;23.00;56.80;;;;;;3123648;28;20160;-86
2021/08/24 06:26:15;;;;;;;2.53;1.70;;;23.00;56.70;;;;;;3115791;28;20423;-88
2021/08/24 06:27:48;;;;;;;3.70;1.50;;;23.00;56.80;;;;;;3119224;28;20060;-88
2021/08/24 06:29:21;;;;;;;2.40;1.30;;;23.10;56.90;;;;;;3122957;28;20068;-89
2021/08/24 06:30:54;;;;;;;10.80;1.75;;;23.10;56.80;;;;;;3120087;28;20061;-88
2021/08/24 06:32:30;;;;;;;6.55;1.90;;;23.10;57.00;;;;;;3123686;28;20496;-88
2021/08/24 06:34:02;;;;;;;4.70;1.80;;;23.10;57.00;;;;;;3123715;28;20049;-89
2021/08/24 06:35:34;;;;;;;6.53;1.70;;;23.10;57.20;;;;;;3119876;28;20058;-88
2021/08/24 06:37:07;;;;;;;10.05;1.52;;;23.10;57.30;;;;;;3111052;28;20050;-88
2021/08/24 06:38:39;;;;;;;9.77;1.50;;;23.10;57.30;;;;;;3110919;28;20085;-86
2021/08/24 06:40:13;;;;;;;7.63;1.60;;;23.10;58.10;;;;;;3110998;28;20050;-89
2021/08/24 06:41:45;;;;;;;15.77;1.80;;;23.00;58.30;;;;;;3115485;28;20049;-86
2021/08/24 06:43:17;;;;;;;7.57;1.65;;;23.00;58.70;;;;;;3119414;28;20488;-88
2021/08/24 06:44:50;;;;;;;7.75;2.03;;;22.90;58.70;;;;;;3121062;28;20103;-87
2021/08/24 06:46:31;;;;;;;11.77;1.63;;;22.90;58.70;;;;;;3109873;28;20045;-87
2021/08/24 06:48:03;;;;;;;30.38;2.40;;;23.00;59.00;;;;;;3120364;28;20049;-85
2021/08/24 06:49:35;;;;;;;6.22;1.55;;;22.90;58.80;;;;;;3115527;28;20069;-88
2021/08/24 06:51:08;;;;;;;12.18;1.42;;;22.90;58.60;;;;;;3117921;28;20492;-86
2021/08/24 06:52:46;;;;;;;4.85;1.58;;;22.90;58.70;;;;;;3116992;28;20401;-86
2021/08/24 06:54:21;;;;;;;8.18;2.20;;;22.90;58.90;;;;;;3110941;28;20077;-84
2021/08/24 06:55:53;;;;;;;6.93;1.88;;;22.90;59.00;;;;;;3111449;28;20105;-87
2021/08/24 06:57:24;;;;;;;3.90;1.50;;;23.00;58.80;;;;;;3114388;28;20046;-85
2021/08/24 06:58:56;;;;;;;8.30;1.70;;;22.90;58.70;;;;;;3111419;28;20415;-87
2021/08/24 07:00:28;;;;;;;11.70;1.70;;;22.90;58.70;;;;;;3116580;28;20069;-86
2021/08/24 07:02:02;;;;;;;9.50;1.63;;;22.90;59.10;;;;;;3120525;28;20654;-86
2021/08/24 07:03:34;;;;;;;9.82;1.70;;;22.90;59.20;;;;;;3119429;28;20061;-87
2021/08/24 07:05:06;;;;;;;7.50;1.92;;;23.00;59.50;;;;;;3118991;28;20045;-86
2021/08/24 07:06:40;;;;;;;15.88;1.90;;;23.00;59.60;;;;;;3111959;28;20050;-87
2021/08/24 07:08:12;;;;;;;9.82;1.60;;;23.00;59.70;;;;;;3119094;28;20064;-84
2021/08/24 07:09:44;;;;;;;11.07;1.80;;;23.00;59.70;;;;;;3123027;28;20045;-83
2021/08/24 07:11:15;;;;;;;5.07;1.50;;;23.10;59.60;;;;;;3122528;28;20050;-85
2021/08/24 07:12:47;;;;;;;8.20;1.73;;;23.00;59.80;;;;;;3121345;28;20053;-84
2021/08/24 07:14:19;;;;;;;4.30;1.67;;;23.00;59.80;;;;;;3123299;28;20108;-83
2021/08/24 07:15:50;;;;;;;4.55;1.80;;;23.00;59.70;;;;;;3121673;28;20497;-84
2021/08/24 07:17:25;;;;;;;10.50;1.90;;;23.10;59.90;;;;;;3113531;28;20046;-86
2021/08/24 07:18:57;;;;;;;8.95;1.90;;;23.00;59.80;;;;;;3115190;28;20045;-88
2021/08/24 07:20:29;;;;;;;5.65;1.60;;;23.00;59.80;;;;;;3120419;28;20045;-87
2021/08/24 07:22:02;;;;;;;5.80;1.77;;;23.10;59.90;;;;;;3117432;28;20050;-88
2021/08/24 07:23:34;;;;;;;8.95;1.85;;;23.10;59.70;;;;;;3118753;28;20096;-85
2021/08/24 07:25:07;;;;;;;7.70;1.80;;;23.10;59.80;;;;;;3128502;28;20064;-85
2021/08/24 07:26:39;;;;;;;11.68;2.15;;;23.10;59.80;;;;;;3114623;28;20053;-86
2021/08/24 07:28:11;;;;;;;4.70;1.73;;;23.10;60.00;;;;;;3111978;28;20049;-86
2021/08/24 07:29:42;;;;;;;11.68;1.92;;;23.10;59.90;;;;;;3110823;28;20477;-86
2021/08/24 07:31:14;;;;;;;6.65;1.90;;;23.10;60.20;;;;;;3112146;28;20071;-87
2021/08/24 07:32:47;;;;;;;11.63;1.92;;;23.00;60.40;;;;;;3115698;28;20049;-85
2021/08/24 07:34:19;;;;;;;8.68;2.17;;;23.00;60.60;;;;;;3122982;28;20054;-86
2021/08/24 07:35:51;;;;;;;10.52;2.00;;;23.00;60.40;;;;;;3121693;28;20049;-87
2021/08/24 07:37:22;;;;;;;4.45;1.60;;;23.10;60.50;;;;;;3122596;28;20073;-86
2021/08/24 07:38:54;;;;;;;7.95;1.92;;;23.10;60.20;;;;;;3115307;28;20049;-85
2021/08/24 07:40:26;;;;;;;12.70;2.17;;;23.10;60.20;;;;;;3111313;28;20049;-87
2021/08/24 07:41:58;;;;;;;5.32;1.85;;;23.20;60.00;;;;;;3110143;28;20072;-86
2021/08/24 07:43:30;;;;;;;11.18;2.20;;;23.10;60.30;;;;;;3113689;28;20092;-86
2021/08/24 07:45:01;;;;;;;8.73;1.60;;;23.00;60.50;;;;;;3115773;28;20053;-86
2021/08/24 07:46:33;;;;;;;8.55;1.95;;;23.00;60.90;;;;;;3112842;28;20103;-87
2021/08/24 07:48:06;;;;;;;3.05;1.65;;;23.00;60.50;;;;;;3122753;28;20061;-86
2021/08/24 07:49:39;;;;;;;5.78;1.70;;;23.10;60.30;;;;;;3118616;28;20053;-87
2021/08/24 07:51:11;;;;;;;;;;;23.10;60.20;;;;;;3120233;28;20050;-86
2021/08/24 07:52:43;;;;;;;6.60;1.67;;;23.00;60.50;;;;;;3127427;28;19944;-85
2021/08/24 07:54:15;;;;;;;5.47;1.92;;;23.00;60.50;;;;;;3122518;28;20064;-85
2021/08/24 07:55:46;;;;;;;8.00;1.73;;;23.00;60.50;;;;;;3122028;28;20117;-86
2021/08/24 07:57:18;;;;;;;7.20;2.00;;;23.00;60.40;;;;;;3110668;28;20046;-86
2021/08/24 07:58:50;;;;;;;8.10;1.70;;;22.90;60.80;;;;;;3110198;28;20050;-85
2021/08/24 08:00:22;;;;;;;6.07;2.03;;;22.90;60.80;;;;;;3108323;28;20050;-85
2021/08/24 08:01:54;;;;;;;4.72;1.70;;;22.80;60.80;;;;;;3110095;28;20420;-85
2021/08/24 08:03:27;;;;;;;6.80;1.65;;;22.80;60.80;;;;;;3109996;28;20053;-85
2021/08/24 08:04:58;;;;;;;4.70;1.58;;;22.80;60.70;;;;;;3110195;28;20050;-85